sensor_id;sensor_type;location;lat;lon;timestamp;P1;P2;P0
30713;PMS7003;17465;47.934;33.430;2023-09-19T00:01:27;22.75;21.50;15.25
30713;PMS7003;17465;47.934;33.430;2023-09-19T00:03:57;19.00;18.25;11.50
30713;PMS7003;17465;47.934;33.430;2023-09-19T00:06:45;25.00;23.25;14.75
30713;PMS7003;17465;47.934;33.430;2023-09-19T00:09:19;20.50;20.25;12.00
30713;PMS7003;17465;47.934;33.430;2023-09-19T00:11:50;21.75;21.00;13.75
30713;PMS7003;17465;47.934;33.430;2023-09-19T00:14:20;25.00;23.75;16.00
30713;PMS7003;17465;47.934;33.430;2023-09-19T00:16:52;25.75;21.75;13.75
30713;PMS7003;17465;47.934;33.430;2023-09-19T00:19:29;23.75;22.25;15.00
30713;PMS7003;17465;47.934;33.430;2023-09-19T00:21:54;25.25;23.75;15.00
30713;PMS7003;17465;47.934;33.430;2023-09-19T00:24:25;27.00;22.75;14.75
30713;PMS7003;17465;47.934;33.430;2023-09-19T00:26:55;25.75;21.75;12.00
30713;PMS7003;17465;47.934;33.430;2023-09-19T00:29:25;28.00;25.25;16.00
30713;PMS7003;17465;47.934;33.430;2023-09-19T00:31:56;19.50;19.50;14.25
30713;PMS7003;17465;47.934;33.430;2023-09-19T00:34:26;20.75;17.75;11.00
30713;PMS7003;17465;47.934;33.430;2023-09-19T00:36:56;21.75;20.50;14.00
30713;PMS7003;17465;47.934;33.430;2023-09-19T00:39:27;26.75;26.75;15.75
30713;PMS7003;17465;47.934;33.430;2023-09-19T00:41:57;21.00;21.00;13.25
30713;PMS7003;17465;47.934;33.430;2023-09-19T00:44:27;24.25;23.25;13.00
30713;PMS7003;17465;47.934;33.430;2023-09-19T00:46:58;26.00;24.75;15.50
30713;PMS7003;17465;47.934;33.430;2023-09-19T00:49:28;23.75;23.75;15.00
30713;PMS7003;17465;47.934;33.430;2023-09-19T00:51:58;28.00;25.50;14.75
30713;PMS7003;17465;47.934;33.430;2023-09-19T00:54:29;21.25;18.00;9.00
30713;PMS7003;17465;47.934;33.430;2023-09-19T00:57:00;26.50;23.50;15.75
30713;PMS7003;17465;47.934;33.430;2023-09-19T00:59:31;26.50;26.00;16.50
30713;PMS7003;17465;47.934;33.430;2023-09-19T01:02:02;30.50;27.00;15.75
30713;PMS7003;17465;47.934;33.430;2023-09-19T01:04:33;26.25;23.75;15.25
30713;PMS7003;17465;47.934;33.430;2023-09-19T01:07:04;23.50;22.25;15.50
30713;PMS7003;17465;47.934;33.430;2023-09-19T01:09:35;27.25;25.25;15.50
30713;PMS7003;17465;47.934;33.430;2023-09-19T01:12:05;24.00;22.25;16.75
30713;PMS7003;17465;47.934;33.430;2023-09-19T01:14:44;28.25;27.25;16.75
30713;PMS7003;17465;47.934;33.430;2023-09-19T01:17:29;29.50;27.75;17.00
30713;PMS7003;17465;47.934;33.430;2023-09-19T01:22:56;31.50;30.00;21.00
30713;PMS7003;17465;47.934;33.430;2023-09-19T01:25:57;31.75;30.75;21.00
30713;PMS7003;17465;47.934;33.430;2023-09-19T01:31:33;31.25;31.00;20.00
30713;PMS7003;17465;47.934;33.430;2023-09-19T01:34:04;31.50;28.75;19.25
30713;PMS7003;17465;47.934;33.430;2023-09-19T01:36:35;31.25;28.50;17.50
30713;PMS7003;17465;47.934;33.430;2023-09-19T01:39:14;30.50;28.50;19.25
30713;PMS7003;17465;47.934;33.430;2023-09-19T01:41:47;28.50;28.50;18.00
30713;PMS7003;17465;47.934;33.430;2023-09-19T01:44:40;35.50;31.25;22.75
30713;PMS7003;17465;47.934;33.430;2023-09-19T01:47:23;31.25;30.50;20.50
30713;PMS7003;17465;47.934;33.430;2023-09-19T01:50:02;30.75;30.25;19.75
30713;PMS7003;17465;47.934;33.430;2023-09-19T01:52:36;37.25;33.00;21.50
30713;PMS7003;17465;47.934;33.430;2023-09-19T01:55:09;34.25;31.00;22.00
30713;PMS7003;17465;47.934;33.430;2023-09-19T01:57:43;35.00;32.25;20.25
30713;PMS7003;17465;47.934;33.430;2023-09-19T02:00:23;35.75;31.50;21.50
30713;PMS7003;17465;47.934;33.430;2023-09-19T02:02:56;36.25;33.00;23.00
30713;PMS7003;17465;47.934;33.430;2023-09-19T02:05:28;34.50;31.00;19.25
30713;PMS7003;17465;47.934;33.430;2023-09-19T02:07:59;35.50;32.00;21.00
30713;PMS7003;17465;47.934;33.430;2023-09-19T02:10:29;41.00;35.25;23.00
30713;PMS7003;17465;47.934;33.430;2023-09-19T02:12:59;38.25;32.25;22.75
30713;PMS7003;17465;47.934;33.430;2023-09-19T02:15:30;39.25;34.25;23.25
30713;PMS7003;17465;47.934;33.430;2023-09-19T02:18:00;37.25;33.50;23.00
30713;PMS7003;17465;47.934;33.430;2023-09-19T02:20:31;38.50;35.00;24.75
30713;PMS7003;17465;47.934;33.430;2023-09-19T02:23:01;33.00;30.50;23.00
30713;PMS7003;17465;47.934;33.430;2023-09-19T02:25:31;42.25;36.25;24.75
30713;PMS7003;17465;47.934;33.430;2023-09-19T02:28:02;46.50;36.75;26.75
30713;PMS7003;17465;47.934;33.430;2023-09-19T02:30:32;42.75;37.00;25.75
30713;PMS7003;17465;47.934;33.430;2023-09-19T02:33:03;46.00;38.25;25.00
30713;PMS7003;17465;47.934;33.430;2023-09-19T02:35:33;44.25;38.25;27.00
30713;PMS7003;17465;47.934;33.430;2023-09-19T02:38:07;41.75;37.00;26.00
30713;PMS7003;17465;47.934;33.430;2023-09-19T02:40:37;42.25;37.25;24.25
30713;PMS7003;17465;47.934;33.430;2023-09-19T02:43:07;42.75;36.00;24.00
30713;PMS7003;17465;47.934;33.430;2023-09-19T02:45:37;42.50;36.75;25.75
30713;PMS7003;17465;47.934;33.430;2023-09-19T02:48:08;45.50;38.50;25.00
30713;PMS7003;17465;47.934;33.430;2023-09-19T02:50:38;48.00;39.50;26.75
30713;PMS7003;17465;47.934;33.430;2023-09-19T02:53:08;44.50;36.75;24.25
30713;PMS7003;17465;47.934;33.430;2023-09-19T02:55:39;43.00;37.75;25.25
30713;PMS7003;17465;47.934;33.430;2023-09-19T02:58:09;33.25;29.00;13.00
30713;PMS7003;17465;47.934;33.430;2023-09-19T03:00:40;80.00;75.00;46.00
30713;PMS7003;17465;47.934;33.430;2023-09-19T03:03:10;44.00;37.50;25.00
30713;PMS7003;17465;47.934;33.430;2023-09-19T03:05:42;44.75;38.25;25.50
30713;PMS7003;17465;47.934;33.430;2023-09-19T03:08:13;46.50;40.00;25.00
30713;PMS7003;17465;47.934;33.430;2023-09-19T03:10:46;43.75;36.50;24.00
30713;PMS7003;17465;47.934;33.430;2023-09-19T03:13:16;43.25;38.25;25.75
30713;PMS7003;17465;47.934;33.430;2023-09-19T03:15:47;51.25;42.00;27.00
30713;PMS7003;17465;47.934;33.430;2023-09-19T03:18:17;49.50;42.00;27.00
30713;PMS7003;17465;47.934;33.430;2023-09-19T03:20:53;45.25;39.75;25.50
30713;PMS7003;17465;47.934;33.430;2023-09-19T03:23:25;41.25;37.00;25.75
30713;PMS7003;17465;47.934;33.430;2023-09-19T03:25:57;47.00;39.50;26.50
30713;PMS7003;17465;47.934;33.430;2023-09-19T03:28:27;42.75;37.00;25.25
30713;PMS7003;17465;47.934;33.430;2023-09-19T03:31:01;44.50;38.75;25.00
30713;PMS7003;17465;47.934;33.430;2023-09-19T03:33:33;48.75;40.00;26.00
30713;PMS7003;17465;47.934;33.430;2023-09-19T03:36:03;45.50;38.00;25.00
30713;PMS7003;17465;47.934;33.430;2023-09-19T03:38:36;46.00;38.25;24.75
30713;PMS7003;17465;47.934;33.430;2023-09-19T03:41:06;45.75;38.00;25.00
30713;PMS7003;17465;47.934;33.430;2023-09-19T03:43:36;38.00;34.75;23.00
30713;PMS7003;17465;47.934;33.430;2023-09-19T03:46:07;43.25;36.50;25.00
30713;PMS7003;17465;47.934;33.430;2023-09-19T03:48:37;39.50;32.50;23.50
30713;PMS7003;17465;47.934;33.430;2023-09-19T03:51:07;37.75;33.50;23.00
30713;PMS7003;17465;47.934;33.430;2023-09-19T03:53:46;42.25;37.00;23.75
30713;PMS7003;17465;47.934;33.430;2023-09-19T03:56:16;35.75;33.00;23.00
30713;PMS7003;17465;47.934;33.430;2023-09-19T03:58:46;37.00;34.00;22.75
30713;PMS7003;17465;47.934;33.430;2023-09-19T04:01:17;39.50;33.75;22.25
30713;PMS7003;17465;47.934;33.430;2023-09-19T04:03:48;37.75;34.00;23.75
30713;PMS7003;17465;47.934;33.430;2023-09-19T04:06:18;33.25;31.00;21.00
30713;PMS7003;17465;47.934;33.430;2023-09-19T04:08:48;33.75;31.50;21.75
30713;PMS7003;17465;47.934;33.430;2023-09-19T04:11:19;30.25;26.75;18.50
30713;PMS7003;17465;47.934;33.430;2023-09-19T04:13:49;33.00;29.25;20.25
30713;PMS7003;17465;47.934;33.430;2023-09-19T04:16:19;35.75;31.00;21.00
30713;PMS7003;17465;47.934;33.430;2023-09-19T04:18:50;38.75;32.00;21.25
30713;PMS7003;17465;47.934;33.430;2023-09-19T04:21:20;34.00;31.00;21.00
30713;PMS7003;17465;47.934;33.430;2023-09-19T04:23:50;24.75;24.75;20.75
30713;PMS7003;17465;47.934;33.430;2023-09-19T04:26:21;33.75;31.00;20.25
30713;PMS7003;17465;47.934;33.430;2023-09-19T04:28:51;30.25;29.50;21.00
30713;PMS7003;17465;47.934;33.430;2023-09-19T04:31:21;32.00;28.25;19.00
30713;PMS7003;17465;47.934;33.430;2023-09-19T04:33:54;34.25;32.25;21.00
30713;PMS7003;17465;47.934;33.430;2023-09-19T04:36:24;35.25;31.25;21.00
30713;PMS7003;17465;47.934;33.430;2023-09-19T04:38:58;32.00;31.00;20.25
30713;PMS7003;17465;47.934;33.430;2023-09-19T04:41:28;29.25;27.00;17.75
30713;PMS7003;17465;47.934;33.430;2023-09-19T04:44:02;31.25;29.75;20.00
30713;PMS7003;17465;47.934;33.430;2023-09-19T04:46:33;31.00;29.00;17.25
30713;PMS7003;17465;47.934;33.430;2023-09-19T04:49:04;30.00;29.00;19.25
30713;PMS7003;17465;47.934;33.430;2023-09-19T04:51:34;27.75;26.25;18.50
30713;PMS7003;17465;47.934;33.430;2023-09-19T04:54:06;28.50;26.75;18.00
30713;PMS7003;17465;47.934;33.430;2023-09-19T04:56:37;31.00;28.25;17.25
30713;PMS7003;17465;47.934;33.430;2023-09-19T04:59:07;26.25;25.75;18.25
30713;PMS7003;17465;47.934;33.430;2023-09-19T05:01:38;27.00;24.50;17.00
30713;PMS7003;17465;47.934;33.430;2023-09-19T05:04:08;27.75;26.75;18.00
30713;PMS7003;17465;47.934;33.430;2023-09-19T05:06:38;28.00;26.75;16.00
30713;PMS7003;17465;47.934;33.430;2023-09-19T05:09:10;27.50;26.75;17.75
30713;PMS7003;17465;47.934;33.430;2023-09-19T05:11:40;31.50;29.50;19.50
30713;PMS7003;17465;47.934;33.430;2023-09-19T05:14:14;29.25;26.50;16.25
30713;PMS7003;17465;47.934;33.430;2023-09-19T05:16:48;35.75;29.75;20.00
30713;PMS7003;17465;47.934;33.430;2023-09-19T05:19:19;27.25;26.25;17.00
30713;PMS7003;17465;47.934;33.430;2023-09-19T05:21:49;29.75;28.00;17.75
30713;PMS7003;17465;47.934;33.430;2023-09-19T05:24:20;32.25;30.00;19.75
30713;PMS7003;17465;47.934;33.430;2023-09-19T05:26:50;24.75;24.00;17.00
30713;PMS7003;17465;47.934;33.430;2023-09-19T05:29:21;25.25;23.75;15.25
30713;PMS7003;17465;47.934;33.430;2023-09-19T05:31:51;28.00;25.75;18.00
30713;PMS7003;17465;47.934;33.430;2023-09-19T05:34:21;31.80;28.60;18.80
30713;PMS7003;17465;47.934;33.430;2023-09-19T05:36:52;26.40;26.00;16.40
30713;PMS7003;17465;47.934;33.430;2023-09-19T05:39:22;22.80;22.00;17.20
30713;PMS7003;17465;47.934;33.430;2023-09-19T05:41:53;24.20;23.20;16.80
30713;PMS7003;17465;47.934;33.430;2023-09-19T05:44:23;25.20;24.80;15.80
30713;PMS7003;17465;47.934;33.430;2023-09-19T05:46:54;24.80;24.80;18.20
30713;PMS7003;17465;47.934;33.430;2023-09-19T05:49:24;30.80;28.20;18.20
30713;PMS7003;17465;47.934;33.430;2023-09-19T05:51:55;27.40;26.00;17.20
30713;PMS7003;17465;47.934;33.430;2023-09-19T05:54:25;28.60;27.20;18.00
30713;PMS7003;17465;47.934;33.430;2023-09-19T05:57:02;28.80;27.20;18.00
30713;PMS7003;17465;47.934;33.430;2023-09-19T05:59:32;26.40;26.20;17.80
30713;PMS7003;17465;47.934;33.430;2023-09-19T06:02:03;26.60;26.60;18.00
30713;PMS7003;17465;47.934;33.430;2023-09-19T06:04:36;23.60;23.60;17.60
30713;PMS7003;17465;47.934;33.430;2023-09-19T06:07:07;25.60;25.20;18.20
30713;PMS7003;17465;47.934;33.430;2023-09-19T06:09:40;29.60;27.60;19.60
30713;PMS7003;17465;47.934;33.430;2023-09-19T06:12:11;27.20;26.80;18.20
30713;PMS7003;17465;47.934;33.430;2023-09-19T06:14:44;26.80;26.80;18.00
30713;PMS7003;17465;47.934;33.430;2023-09-19T06:17:17;25.40;25.00;16.40
30713;PMS7003;17465;47.934;33.430;2023-09-19T06:19:53;22.00;20.60;14.40
30713;PMS7003;17465;47.934;33.430;2023-09-19T06:22:24;18.20;17.80;11.60
30713;PMS7003;17465;47.934;33.430;2023-09-19T06:24:55;25.20;24.40;17.20
30713;PMS7003;17465;47.934;33.430;2023-09-19T06:27:25;26.60;26.20;17.20
30713;PMS7003;17465;47.934;33.430;2023-09-19T06:29:55;30.00;26.80;19.20
30713;PMS7003;17465;47.934;33.430;2023-09-19T06:32:29;29.00;27.60;19.00
30713;PMS7003;17465;47.934;33.430;2023-09-19T06:35:00;23.60;22.80;17.80
30713;PMS7003;17465;47.934;33.430;2023-09-19T06:37:33;27.80;26.60;17.40
30713;PMS7003;17465;47.934;33.430;2023-09-19T06:40:08;31.60;27.80;20.00
30713;PMS7003;17465;47.934;33.430;2023-09-19T06:42:41;27.60;25.00;17.20
30713;PMS7003;17465;47.934;33.430;2023-09-19T06:45:17;24.80;24.00;16.60
30713;PMS7003;17465;47.934;33.430;2023-09-19T06:47:48;23.20;22.60;16.20
30713;PMS7003;17465;47.934;33.430;2023-09-19T06:50:27;18.80;18.20;12.20
30713;PMS7003;17465;47.934;33.430;2023-09-19T06:52:58;16.80;16.40;11.20
30713;PMS7003;17465;47.934;33.430;2023-09-19T06:55:31;20.60;20.60;13.40
30713;PMS7003;17465;47.934;33.430;2023-09-19T06:58:05;19.60;19.60;14.80
30713;PMS7003;17465;47.934;33.430;2023-09-19T07:00:37;22.60;22.60;15.80
30713;PMS7003;17465;47.934;33.430;2023-09-19T07:03:09;14.00;14.00;8.20
30713;PMS7003;17465;47.934;33.430;2023-09-19T07:06:00;14.80;14.80;11.00
30713;PMS7003;17465;47.934;33.430;2023-09-19T07:08:34;19.60;19.20;13.60
30713;PMS7003;17465;47.934;33.430;2023-09-19T07:11:06;15.00;14.00;10.80
30713;PMS7003;17465;47.934;33.430;2023-09-19T07:13:44;18.60;18.40;12.20
30713;PMS7003;17465;47.934;33.430;2023-09-19T07:16:20;19.40;19.00;13.80
30713;PMS7003;17465;47.934;33.430;2023-09-19T07:18:50;19.00;17.80;13.40
30713;PMS7003;17465;47.934;33.430;2023-09-19T07:21:21;16.00;15.80;11.20
30713;PMS7003;17465;47.934;33.430;2023-09-19T07:23:53;12.40;12.40;9.40
30713;PMS7003;17465;47.934;33.430;2023-09-19T07:26:26;16.20;16.20;11.00
30713;PMS7003;17465;47.934;33.430;2023-09-19T07:28:56;15.80;15.80;11.40
30713;PMS7003;17465;47.934;33.430;2023-09-19T07:31:28;12.80;12.80;11.20
30713;PMS7003;17465;47.934;33.430;2023-09-19T07:33:59;21.20;19.80;13.40
30713;PMS7003;17465;47.934;33.430;2023-09-19T07:36:30;15.40;15.40;12.20
30713;PMS7003;17465;47.934;33.430;2023-09-19T07:39:00;16.60;16.20;11.80
30713;PMS7003;17465;47.934;33.430;2023-09-19T07:41:33;19.60;19.60;14.20
30713;PMS7003;17465;47.934;33.430;2023-09-19T07:44:04;17.20;15.80;11.80
30713;PMS7003;17465;47.934;33.430;2023-09-19T07:46:36;16.80;16.80;13.20
30713;PMS7003;17465;47.934;33.430;2023-09-19T07:49:07;19.00;17.60;13.60
30713;PMS7003;17465;47.934;33.430;2023-09-19T07:51:38;20.00;18.40;13.60
30713;PMS7003;17465;47.934;33.430;2023-09-19T07:54:09;20.20;20.20;15.40
30713;PMS7003;17465;47.934;33.430;2023-09-19T07:56:41;15.80;15.80;12.40
30713;PMS7003;17465;47.934;33.430;2023-09-19T07:59:12;18.20;18.20;14.00
30713;PMS7003;17465;47.934;33.430;2023-09-19T08:01:43;18.80;18.20;13.80
30713;PMS7003;17465;47.934;33.430;2023-09-19T08:04:19;16.00;16.00;13.40
30713;PMS7003;17465;47.934;33.430;2023-09-19T08:06:50;19.80;18.80;14.40
30713;PMS7003;17465;47.934;33.430;2023-09-19T08:09:20;14.00;14.00;10.60
30713;PMS7003;17465;47.934;33.430;2023-09-19T08:11:57;21.00;21.00;15.60
30713;PMS7003;17465;47.934;33.430;2023-09-19T08:14:29;21.20;20.20;15.20
30713;PMS7003;17465;47.934;33.430;2023-09-19T08:17:00;21.80;20.40;14.80
30713;PMS7003;17465;47.934;33.430;2023-09-19T08:19:34;20.20;20.20;16.80
30713;PMS7003;17465;47.934;33.430;2023-09-19T08:22:05;22.80;22.00;16.60
30713;PMS7003;17465;47.934;33.430;2023-09-19T08:24:36;18.00;18.00;13.40
30713;PMS7003;17465;47.934;33.430;2023-09-19T08:27:12;19.60;19.60;13.40
30713;PMS7003;17465;47.934;33.430;2023-09-19T08:29:39;21.40;21.40;14.60
30713;PMS7003;17465;47.934;33.430;2023-09-19T08:32:12;16.60;16.40;14.20
30713;PMS7003;17465;47.934;33.430;2023-09-19T08:34:44;20.40;20.40;16.40
30713;PMS7003;17465;47.934;33.430;2023-09-19T08:37:22;24.60;22.40;15.20
30713;PMS7003;17465;47.934;33.430;2023-09-19T08:39:53;19.80;19.80;13.20
30713;PMS7003;17465;47.934;33.430;2023-09-19T08:42:24;21.60;20.60;14.00
30713;PMS7003;17465;47.934;33.430;2023-09-19T08:44:55;18.40;17.80;13.40
30713;PMS7003;17465;47.934;33.430;2023-09-19T08:47:37;21.40;21.40;15.40
30713;PMS7003;17465;47.934;33.430;2023-09-19T08:50:16;18.00;17.80;13.40
30713;PMS7003;17465;47.934;33.430;2023-09-19T08:52:51;19.40;19.00;15.00
30713;PMS7003;17465;47.934;33.430;2023-09-19T08:55:36;24.60;24.60;18.80
30713;PMS7003;17465;47.934;33.430;2023-09-19T08:58:15;20.40;20.40;15.40
30713;PMS7003;17465;47.934;33.430;2023-09-19T09:00:53;21.00;21.00;14.60
30713;PMS7003;17465;47.934;33.430;2023-09-19T09:03:52;21.40;21.40;16.80
30713;PMS7003;17465;47.934;33.430;2023-09-19T09:06:38;22.20;22.20;17.00
30713;PMS7003;17465;47.934;33.430;2023-09-19T09:09:12;22.40;22.40;16.80
30713;PMS7003;17465;47.934;33.430;2023-09-19T09:11:51;24.20;22.40;16.40
30713;PMS7003;17465;47.934;33.430;2023-09-19T09:14:22;23.20;23.20;17.00
30713;PMS7003;17465;47.934;33.430;2023-09-19T09:16:53;17.80;17.80;13.60
30713;PMS7003;17465;47.934;33.430;2023-09-19T09:19:25;25.20;25.20;17.00
30713;PMS7003;17465;47.934;33.430;2023-09-19T09:22:05;23.40;22.40;17.00
30713;PMS7003;17465;47.934;33.430;2023-09-19T09:24:51;22.80;22.80;17.00
30713;PMS7003;17465;47.934;33.430;2023-09-19T09:27:23;21.80;21.20;14.80
30713;PMS7003;17465;47.934;33.430;2023-09-19T09:29:57;18.40;18.40;14.00
30713;PMS7003;17465;47.934;33.430;2023-09-19T09:32:28;15.80;15.80;12.80
30713;PMS7003;17465;47.934;33.430;2023-09-19T09:35:00;23.20;21.00;16.00
30713;PMS7003;17465;47.934;33.430;2023-09-19T09:37:32;25.20;24.20;17.60
30713;PMS7003;17465;47.934;33.430;2023-09-19T09:40:02;21.80;21.00;15.40
30713;PMS7003;17465;47.934;33.430;2023-09-19T09:42:37;11.40;11.40;8.20
30713;PMS7003;17465;47.934;33.430;2023-09-19T09:47:49;16.20;16.20;13.00
30713;PMS7003;17465;47.934;33.430;2023-09-19T09:50:30;21.80;21.80;15.80
30713;PMS7003;17465;47.934;33.430;2023-09-19T09:53:03;22.20;22.20;16.00
30713;PMS7003;17465;47.934;33.430;2023-09-19T09:58:49;21.20;21.20;16.40
30713;PMS7003;17465;47.934;33.430;2023-09-19T10:01:21;18.40;18.40;15.40
30713;PMS7003;17465;47.934;33.430;2023-09-19T10:03:56;18.20;17.40;12.00
30713;PMS7003;17465;47.934;33.430;2023-09-19T10:06:50;19.60;18.60;13.00
30713;PMS7003;17465;47.934;33.430;2023-09-19T10:09:19;23.40;23.40;17.40
30713;PMS7003;17465;47.934;33.430;2023-09-19T10:12:26;19.60;19.20;14.60
30713;PMS7003;17465;47.934;33.430;2023-09-19T10:14:56;20.80;20.80;14.80
30713;PMS7003;17465;47.934;33.430;2023-09-19T10:17:30;22.40;21.40;15.80
30713;PMS7003;17465;47.934;33.430;2023-09-19T10:20:03;23.00;23.00;15.40
30713;PMS7003;17465;47.934;33.430;2023-09-19T10:22:37;21.20;21.20;14.60
30713;PMS7003;17465;47.934;33.430;2023-09-19T10:25:23;21.00;20.40;17.00
30713;PMS7003;17465;47.934;33.430;2023-09-19T10:27:51;24.80;24.00;18.60
30713;PMS7003;17465;47.934;33.430;2023-09-19T10:30:29;17.60;17.60;12.40
30713;PMS7003;17465;47.934;33.430;2023-09-19T10:33:20;16.80;16.80;13.20
30713;PMS7003;17465;47.934;33.430;2023-09-19T10:35:50;20.80;19.80;15.00
30713;PMS7003;17465;47.934;33.430;2023-09-19T10:38:25;23.00;22.00;17.00
30713;PMS7003;17465;47.934;33.430;2023-09-19T10:41:00;20.20;19.40;16.00
30713;PMS7003;17465;47.934;33.430;2023-09-19T10:43:37;18.40;18.00;13.20
30713;PMS7003;17465;47.934;33.430;2023-09-19T10:46:13;22.00;21.40;16.80
30713;PMS7003;17465;47.934;33.430;2023-09-19T10:48:46;13.00;13.00;10.20
30713;PMS7003;17465;47.934;33.430;2023-09-19T10:51:25;17.00;17.00;14.00
30713;PMS7003;17465;47.934;33.430;2023-09-19T10:54:04;19.60;19.60;13.60
30713;PMS7003;17465;47.934;33.430;2023-09-19T10:56:35;22.80;22.20;15.20
30713;PMS7003;17465;47.934;33.430;2023-09-19T10:59:14;18.00;18.00;14.60
30713;PMS7003;17465;47.934;33.430;2023-09-19T11:01:45;18.40;18.40;13.00
30713;PMS7003;17465;47.934;33.430;2023-09-19T11:04:32;20.00;20.00;13.20
30713;PMS7003;17465;47.934;33.430;2023-09-19T11:07:09;20.20;20.00;14.40
30713;PMS7003;17465;47.934;33.430;2023-09-19T11:15:08;18.20;17.80;14.00
30713;PMS7003;17465;47.934;33.430;2023-09-19T11:17:43;17.00;16.80;12.80
30713;PMS7003;17465;47.934;33.430;2023-09-19T11:27:09;15.40;15.40;10.40
30713;PMS7003;17465;47.934;33.430;2023-09-19T11:46:53;15.20;14.40;10.80
30713;PMS7003;17465;47.934;33.430;2023-09-19T11:52:05;16.40;16.40;12.40
30713;PMS7003;17465;47.934;33.430;2023-09-19T11:54:40;14.80;14.80;12.00
30713;PMS7003;17465;47.934;33.430;2023-09-19T11:57:20;16.60;15.80;10.60
30713;PMS7003;17465;47.934;33.430;2023-09-19T11:59:57;16.20;16.20;12.00
30713;PMS7003;17465;47.934;33.430;2023-09-19T12:02:35;18.40;17.80;13.80
30713;PMS7003;17465;47.934;33.430;2023-09-19T12:05:10;17.00;16.00;12.00
30713;PMS7003;17465;47.934;33.430;2023-09-19T12:07:43;14.80;13.80;11.00
30713;PMS7003;17465;47.934;33.430;2023-09-19T12:10:16;17.40;17.40;13.00
30713;PMS7003;17465;47.934;33.430;2023-09-19T12:12:48;18.80;18.20;13.00
30713;PMS7003;17465;47.934;33.430;2023-09-19T12:15:23;16.40;16.40;12.00
30713;PMS7003;17465;47.934;33.430;2023-09-19T12:17:55;19.80;19.20;13.40
30713;PMS7003;17465;47.934;33.430;2023-09-19T12:24:05;15.60;15.20;11.80
30713;PMS7003;17465;47.934;33.430;2023-09-19T12:27:06;14.60;13.60;10.80
30713;PMS7003;17465;47.934;33.430;2023-09-19T12:29:43;14.60;14.60;12.00
30713;PMS7003;17465;47.934;33.430;2023-09-19T12:32:18;15.00;15.00;11.40
30713;PMS7003;17465;47.934;33.430;2023-09-19T12:35:08;15.20;14.60;10.80
30713;PMS7003;17465;47.934;33.430;2023-09-19T12:37:44;18.00;16.80;12.40
30713;PMS7003;17465;47.934;33.430;2023-09-19T12:40:14;16.60;15.60;10.80
30713;PMS7003;17465;47.934;33.430;2023-09-19T12:42:46;18.20;18.20;12.40
30713;PMS7003;17465;47.934;33.430;2023-09-19T12:45:17;14.60;14.40;11.20
30713;PMS7003;17465;47.934;33.430;2023-09-19T12:53:43;16.00;15.60;11.80
30713;PMS7003;17465;47.934;33.430;2023-09-19T12:56:16;13.20;13.20;9.60
30713;PMS7003;17465;47.934;33.430;2023-09-19T13:01:24;13.60;13.60;9.80
30713;PMS7003;17465;47.934;33.430;2023-09-19T13:04:11;15.60;15.60;10.60
30713;PMS7003;17465;47.934;33.430;2023-09-19T13:06:53;14.80;14.80;11.40
30713;PMS7003;17465;47.934;33.430;2023-09-19T13:09:20;16.80;16.60;12.60
30713;PMS7003;17465;47.934;33.430;2023-09-19T13:11:52;17.40;16.00;12.00
30713;PMS7003;17465;47.934;33.430;2023-09-19T13:14:26;13.60;13.20;10.80
30713;PMS7003;17465;47.934;33.430;2023-09-19T13:17:01;14.00;14.00;12.20
30713;PMS7003;17465;47.934;33.430;2023-09-19T13:19:46;12.20;12.20;9.20
30713;PMS7003;17465;47.934;33.430;2023-09-19T13:22:37;18.20;17.20;12.00
30713;PMS7003;17465;47.934;33.430;2023-09-19T13:25:15;16.00;15.60;11.00
30713;PMS7003;17465;47.934;33.430;2023-09-19T13:30:20;16.60;16.00;11.00
30713;PMS7003;17465;47.934;33.430;2023-09-19T13:33:10;14.20;14.20;10.00
30713;PMS7003;17465;47.934;33.430;2023-09-19T13:35:41;13.20;13.20;10.00
30713;PMS7003;17465;47.934;33.430;2023-09-19T13:38:11;17.00;14.20;10.20
30713;PMS7003;17465;47.934;33.430;2023-09-19T13:40:42;14.60;14.60;12.40
30713;PMS7003;17465;47.934;33.430;2023-09-19T13:43:12;16.60;16.60;12.20
30713;PMS7003;17465;47.934;33.430;2023-09-19T13:45:43;13.20;13.20;11.20
30713;PMS7003;17465;47.934;33.430;2023-09-19T13:48:13;12.40;12.00;9.20
30713;PMS7003;17465;47.934;33.430;2023-09-19T13:50:43;18.00;18.00;12.80
30713;PMS7003;17465;47.934;33.430;2023-09-19T13:53:19;19.60;19.40;14.60
30713;PMS7003;17465;47.934;33.430;2023-09-19T13:55:49;13.00;12.80;9.80
30713;PMS7003;17465;47.934;33.430;2023-09-19T13:58:19;10.00;10.00;7.20
30713;PMS7003;17465;47.934;33.430;2023-09-19T14:00:50;16.60;16.60;13.60
30713;PMS7003;17465;47.934;33.430;2023-09-19T14:03:20;18.60;17.00;12.80
30713;PMS7003;17465;47.934;33.430;2023-09-19T14:05:51;13.80;13.80;9.20
30713;PMS7003;17465;47.934;33.430;2023-09-19T14:08:21;20.20;18.00;14.00
30713;PMS7003;17465;47.934;33.430;2023-09-19T14:10:52;19.40;16.60;12.80
30713;PMS7003;17465;47.934;33.430;2023-09-19T14:13:22;15.60;15.60;11.60
30713;PMS7003;17465;47.934;33.430;2023-09-19T14:15:53;8.40;8.40;5.20
30713;PMS7003;17465;47.934;33.430;2023-09-19T14:18:23;15.40;14.00;9.40
30713;PMS7003;17465;47.934;33.430;2023-09-19T14:20:53;15.60;14.60;10.00
30713;PMS7003;17465;47.934;33.430;2023-09-19T14:23:40;14.40;12.80;8.20
30713;PMS7003;17465;47.934;33.430;2023-09-19T14:26:05;16.80;15.60;11.80
30713;PMS7003;17465;47.934;33.430;2023-09-19T14:28:37;17.00;17.00;12.40
30713;PMS7003;17465;47.934;33.430;2023-09-19T14:31:09;15.80;15.80;10.80
30713;PMS7003;17465;47.934;33.430;2023-09-19T14:33:40;14.60;14.60;9.40
30713;PMS7003;17465;47.934;33.430;2023-09-19T14:36:10;14.60;14.60;9.80
30713;PMS7003;17465;47.934;33.430;2023-09-19T14:38:41;17.00;17.00;12.60
30713;PMS7003;17465;47.934;33.430;2023-09-19T14:41:12;13.00;13.00;9.00
30713;PMS7003;17465;47.934;33.430;2023-09-19T14:43:42;17.00;15.80;11.40
30713;PMS7003;17465;47.934;33.430;2023-09-19T14:46:12;14.40;14.40;10.40
30713;PMS7003;17465;47.934;33.430;2023-09-19T14:48:43;14.00;13.00;9.00
30713;PMS7003;17465;47.934;33.430;2023-09-19T14:51:14;16.00;15.20;11.40
30713;PMS7003;17465;47.934;33.430;2023-09-19T14:53:44;17.40;17.40;11.80
30713;PMS7003;17465;47.934;33.430;2023-09-19T14:56:15;80.75;78.00;53.25
30713;PMS7003;17465;47.934;33.430;2023-09-19T15:01:26;23.40;22.00;14.80
30713;PMS7003;17465;47.934;33.430;2023-09-19T15:03:59;20.40;20.40;16.80
30713;PMS7003;17465;47.934;33.430;2023-09-19T15:06:31;20.40;20.40;14.40
30713;PMS7003;17465;47.934;33.430;2023-09-19T15:09:03;14.60;14.60;9.60